createdAt,value
2017-09-14T00:00:01.578Z,10.10
2017-09-14T00:01:04.082Z,10.10
2017-09-14T00:02:06.692Z,10.30
2017-09-14T00:03:09.294Z,10.30
2017-09-14T00:04:11.937Z,10.40
2017-09-14T00:05:15.190Z,10.60
2017-09-14T00:06:17.685Z,10.60
2017-09-14T00:07:20.961Z,10.80
2017-09-14T00:08:23.458Z,10.80
2017-09-14T00:09:25.962Z,10.90
2017-09-14T00:10:28.518Z,10.90
2017-09-14T00:11:31.021Z,11.00
2017-09-14T00:12:33.504Z,11.00
2017-09-14T00:13:36.753Z,10.90
2017-09-14T00:14:39.373Z,10.90
2017-09-14T00:15:42.477Z,10.80
2017-09-14T00:16:45.119Z,10.80
2017-09-14T00:17:47.611Z,10.70
2017-09-14T00:18:50.179Z,10.60
2017-09-14T00:19:52.689Z,10.60
2017-09-14T00:20:56.899Z,10.40
2017-09-14T00:22:00.488Z,10.50
2017-09-14T00:23:03.932Z,10.50
2017-09-14T00:24:06.433Z,10.50
2017-09-14T00:25:08.951Z,10.50
2017-09-14T00:26:11.475Z,10.50
2017-09-14T00:27:15.849Z,10.60
2017-09-14T00:28:18.331Z,10.60
2017-09-14T00:29:20.884Z,10.60
2017-09-14T00:30:23.411Z,10.60
2017-09-14T00:31:27.063Z,10.70
2017-09-14T00:32:29.578Z,10.70
2017-09-14T00:33:34.457Z,10.80
2017-09-14T00:34:37.752Z,10.80
2017-09-14T00:35:40.340Z,10.80
2017-09-14T00:36:42.877Z,10.90
2017-09-14T00:37:47.939Z,10.90
2017-09-14T00:38:50.434Z,11.00
2017-09-14T00:39:52.931Z,11.00
2017-09-14T00:40:56.237Z,11.00
2017-09-14T00:41:58.854Z,11.00
2017-09-14T00:43:01.344Z,11.00
2017-09-14T00:44:04.167Z,11.00
2017-09-14T00:45:06.894Z,11.10
2017-09-14T00:46:11.304Z,11.20
2017-09-14T00:47:14.555Z,11.20
2017-09-14T00:48:17.037Z,11.10
2017-09-14T00:49:19.530Z,11.20
2017-09-14T00:50:22.332Z,11.20
2017-09-14T00:51:24.937Z,11.10
2017-09-14T00:52:27.524Z,11.20
2017-09-14T00:53:30.811Z,11.20
2017-09-14T00:54:34.219Z,11.20
2017-09-14T00:55:36.727Z,11.20
2017-09-14T00:56:39.220Z,11.20
2017-09-14T00:57:42.493Z,11.20
2017-09-14T00:58:44.978Z,11.20
2017-09-14T00:59:48.391Z,11.10
2017-09-14T01:00:51.016Z,11.10
2017-09-14T01:01:54.299Z,11.00
2017-09-14T01:02:58.337Z,11.00
2017-09-14T01:04:00.828Z,11.00
2017-09-14T01:05:03.324Z,11.00
2017-09-14T01:06:05.820Z,11.00
2017-09-14T01:07:09.188Z,11.00
2017-09-14T01:08:11.670Z,11.10
2017-09-14T01:09:15.048Z,11.10
2017-09-14T01:10:18.313Z,11.10
2017-09-14T01:11:20.985Z,11.20
2017-09-14T01:12:23.761Z,11.20
2017-09-14T01:13:26.417Z,11.20
2017-09-14T01:14:28.894Z,11.20
2017-09-14T01:15:31.787Z,11.30
2017-09-14T01:16:35.630Z,11.30
2017-09-14T01:17:38.217Z,11.30
2017-09-14T01:18:40.707Z,11.30
2017-09-14T01:19:43.972Z,11.40
2017-09-14T01:20:46.455Z,11.40
2017-09-14T01:21:49.814Z,11.40
2017-09-14T01:22:52.343Z,11.40
2017-09-14T01:23:54.848Z,11.30
2017-09-14T01:24:57.523Z,11.30
2017-09-14T01:26:00.019Z,11.30
2017-09-14T01:27:03.392Z,11.30
2017-09-14T01:28:05.971Z,11.20
2017-09-14T01:29:09.277Z,11.20
2017-09-14T01:30:11.812Z,11.20
2017-09-14T01:31:15.084Z,11.10
2017-09-14T01:32:17.597Z,11.00
2017-09-14T01:33:20.085Z,11.00
2017-09-14T01:34:22.573Z,10.90
2017-09-14T01:35:25.153Z,10.90
2017-09-14T01:36:27.760Z,10.90
2017-09-14T01:37:30.263Z,10.80
2017-09-14T01:38:32.765Z,10.80
2017-09-14T01:39:36.275Z,10.70
2017-09-14T01:40:38.823Z,10.70
2017-09-14T01:41:42.085Z,10.70
2017-09-14T01:42:44.586Z,10.70
2017-09-14T01:43:47.172Z,10.60
2017-09-14T01:44:49.857Z,10.60
2017-09-14T01:45:52.372Z,10.50
2017-09-14T01:46:55.626Z,10.40
2017-09-14T01:47:58.188Z,10.40
2017-09-14T01:49:00.673Z,10.40
2017-09-14T01:50:03.217Z,10.30
2017-09-14T01:51:05.736Z,10.40
2017-09-14T01:52:08.252Z,10.40
2017-09-14T01:53:10.735Z,10.30
2017-09-14T01:54:13.471Z,10.30
2017-09-14T01:55:15.976Z,10.20
2017-09-14T01:56:18.511Z,10.20
2017-09-14T01:57:21.083Z,10.20
2017-09-14T01:58:23.648Z,10.20
2017-09-14T01:59:26.224Z,10.10
2017-09-14T02:00:29.480Z,10.10
2017-09-14T02:01:31.983Z,10.10
2017-09-14T02:02:34.543Z,10.10
2017-09-14T02:03:37.064Z,10.10
2017-09-14T02:04:39.558Z,10.10
2017-09-14T02:05:42.082Z,10.10
2017-09-14T02:06:45.324Z,10.00
2017-09-14T02:07:47.816Z,10.00
2017-09-14T02:08:51.095Z,10.00
2017-09-14T02:09:54.371Z,10.00
2017-09-14T02:10:57.620Z,10.00
2017-09-14T02:12:00.460Z,10.00
2017-09-14T02:13:02.960Z,10.00
2017-09-14T02:14:05.454Z,10.00
2017-09-14T02:15:08.058Z,9.90
2017-09-14T02:16:10.543Z,9.90
2017-09-14T02:17:13.024Z,10.00
2017-09-14T02:18:15.508Z,9.90
2017-09-14T02:19:18.074Z,9.90
2017-09-14T02:20:21.375Z,9.90
2017-09-14T02:21:23.920Z,9.90
2017-09-14T02:22:27.187Z,10.00
2017-09-14T02:23:29.690Z,9.90
2017-09-14T02:24:32.947Z,9.90
2017-09-14T02:25:36.946Z,9.90
2017-09-14T02:26:39.520Z,9.90
2017-09-14T02:27:42.772Z,9.90
2017-09-14T02:28:45.267Z,9.90
2017-09-14T02:29:47.880Z,9.90
2017-09-14T02:30:50.369Z,9.90
2017-09-14T02:31:52.869Z,9.80
2017-09-14T02:32:55.413Z,9.80
2017-09-14T02:33:57.899Z,9.80
2017-09-14T02:35:00.474Z,9.80
2017-09-14T02:36:02.977Z,9.80
2017-09-14T02:37:05.488Z,9.80
2017-09-14T02:38:07.969Z,9.70
2017-09-14T02:39:10.525Z,9.80
2017-09-14T02:40:14.526Z,9.80
2017-09-14T02:41:17.768Z,9.70
2017-09-14T02:42:20.270Z,9.70
2017-09-14T02:43:24.281Z,9.70
2017-09-14T02:44:26.769Z,9.70
2017-09-14T02:45:30.020Z,9.70
2017-09-14T02:46:32.538Z,9.70
2017-09-14T02:47:35.040Z,9.60
2017-09-14T02:48:37.522Z,9.60
2017-09-14T02:49:40.055Z,9.60
2017-09-14T02:50:42.532Z,9.70
2017-09-14T02:51:45.110Z,9.60
2017-09-14T02:52:48.469Z,9.60
2017-09-14T02:53:51.056Z,9.60
2017-09-14T02:54:53.529Z,9.60
2017-09-14T02:55:56.345Z,9.60
2017-09-14T02:56:58.848Z,9.60
2017-09-14T02:58:01.898Z,9.50
2017-09-14T02:59:04.376Z,9.60
2017-09-14T03:00:06.859Z,9.70
2017-09-14T03:01:09.368Z,9.60
2017-09-14T03:02:12.781Z,9.60
2017-09-14T03:03:15.275Z,9.60
2017-09-14T03:04:17.843Z,9.60
2017-09-14T03:05:20.388Z,9.60
2017-09-14T03:06:22.858Z,9.60
2017-09-14T03:07:25.351Z,9.60
2017-09-14T03:08:27.924Z,9.60
2017-09-14T03:09:30.427Z,9.60
2017-09-14T03:10:33.800Z,9.70
2017-09-14T03:11:37.039Z,9.60
2017-09-14T03:12:40.343Z,9.60
2017-09-14T03:13:42.824Z,9.60
2017-09-14T03:14:45.355Z,9.70
2017-09-14T03:15:47.837Z,9.70
2017-09-14T03:16:50.418Z,9.70
2017-09-14T03:17:52.895Z,9.70
2017-09-14T03:18:55.419Z,9.70
2017-09-14T03:19:57.909Z,9.70
2017-09-14T03:21:01.897Z,9.60
2017-09-14T03:22:05.185Z,9.60
2017-09-14T03:23:07.674Z,9.60
2017-09-14T03:24:10.217Z,9.60
2017-09-14T03:25:12.696Z,9.60
2017-09-14T03:26:15.993Z,9.60
2017-09-14T03:27:19.292Z,9.60
2017-09-14T03:28:22.631Z,9.60
2017-09-14T03:29:25.120Z,9.60
2017-09-14T03:30:27.673Z,9.60
2017-09-14T03:31:30.159Z,9.60
2017-09-14T03:32:33.525Z,9.60
2017-09-14T03:33:36.858Z,9.60
2017-09-14T03:34:39.352Z,9.60
2017-09-14T03:35:41.835Z,9.50
2017-09-14T03:36:44.385Z,9.50
2017-09-14T03:37:46.893Z,9.50
2017-09-14T03:38:50.265Z,9.50
2017-09-14T03:39:53.359Z,9.50
2017-09-14T03:40:56.705Z,9.60
2017-09-14T03:41:59.201Z,9.60
2017-09-14T03:43:02.797Z,9.60
2017-09-14T03:44:06.054Z,9.70
2017-09-14T03:45:09.113Z,9.70
2017-09-14T03:46:11.613Z,9.80
2017-09-14T03:47:15.699Z,9.90
2017-09-14T03:48:18.192Z,9.90
2017-09-14T03:49:20.691Z,9.90
2017-09-14T03:50:23.203Z,9.90
2017-09-14T03:51:25.765Z,9.90
2017-09-14T03:52:28.392Z,9.90
2017-09-14T03:53:30.997Z,9.90
2017-09-14T03:54:33.520Z,10.00
2017-09-14T03:55:36.084Z,10.00
2017-09-14T03:56:38.618Z,10.10
2017-09-14T03:57:41.124Z,10.10
2017-09-14T03:58:43.602Z,10.10
2017-09-14T03:59:46.205Z,10.10
2017-09-14T04:00:48.716Z,10.10
2017-09-14T04:01:51.288Z,10.10
2017-09-14T04:02:53.768Z,10.10
2017-09-14T04:03:56.362Z,10.10
2017-09-14T04:04:58.873Z,10.10
2017-09-14T04:06:01.379Z,10.10
2017-09-14T04:07:03.892Z,10.10
2017-09-14T04:08:07.261Z,10.00
2017-09-14T04:09:09.766Z,10.00
2017-09-14T04:10:12.398Z,9.90
2017-09-14T04:11:14.884Z,9.90
2017-09-14T04:12:18.267Z,9.90
2017-09-14T04:13:21.533Z,9.80
2017-09-14T04:14:24.026Z,9.80
2017-09-14T04:15:26.525Z,9.80
2017-09-14T04:16:29.732Z,9.80
2017-09-14T04:17:32.211Z,9.80
2017-09-14T04:18:34.701Z,9.70
2017-09-14T04:19:37.969Z,9.70
2017-09-14T04:20:40.446Z,9.70
2017-09-14T04:21:43.729Z,9.60
2017-09-14T04:22:47.085Z,9.70
2017-09-14T04:23:49.572Z,9.60
2017-09-14T04:24:52.932Z,9.50
2017-09-14T04:25:56.942Z,9.50
2017-09-14T04:26:59.425Z,9.50
2017-09-14T04:28:02.680Z,9.50
2017-09-14T04:29:06.261Z,9.50
2017-09-14T04:30:08.827Z,9.50
2017-09-14T04:31:11.518Z,9.50
2017-09-14T04:32:14.030Z,9.40
2017-09-14T04:33:16.635Z,9.40
2017-09-14T04:34:19.123Z,9.60
2017-09-14T04:35:21.613Z,9.60
2017-09-14T04:36:24.138Z,9.50
2017-09-14T04:37:26.619Z,9.40
2017-09-14T04:38:29.206Z,9.50
2017-09-14T04:39:31.826Z,9.40
2017-09-14T04:40:34.299Z,9.40
2017-09-14T04:41:36.791Z,9.40
2017-09-14T04:42:40.057Z,9.30
2017-09-14T04:43:42.553Z,9.30
2017-09-14T04:44:45.859Z,9.50
2017-09-14T04:45:48.471Z,9.50
2017-09-14T04:46:50.964Z,9.60
2017-09-14T04:47:55.345Z,9.50
2017-09-14T04:48:57.837Z,9.50
2017-09-14T04:50:02.212Z,9.50
2017-09-14T04:51:04.769Z,9.50
2017-09-14T04:52:07.468Z,9.60
2017-09-14T04:53:09.966Z,9.60
2017-09-14T04:54:12.596Z,9.60
2017-09-14T04:55:16.599Z,9.50
2017-09-14T04:56:19.088Z,9.50
2017-09-14T04:57:22.365Z,9.60
2017-09-14T04:58:25.649Z,9.60
2017-09-14T04:59:28.936Z,9.60
2017-09-14T05:00:31.600Z,9.60
2017-09-14T05:01:34.915Z,9.60
2017-09-14T05:02:37.519Z,9.60
2017-09-14T05:03:40.047Z,9.60
2017-09-14T05:04:42.805Z,9.60
2017-09-14T05:05:46.064Z,9.60
2017-09-14T05:06:48.549Z,9.60
2017-09-14T05:07:51.805Z,9.70
2017-09-14T05:08:54.288Z,9.70
2017-09-14T05:09:57.559Z,9.70
2017-09-14T05:11:00.108Z,9.70
2017-09-14T05:12:02.593Z,9.80
2017-09-14T05:13:05.147Z,9.80
2017-09-14T05:14:08.403Z,9.80
2017-09-14T05:15:10.956Z,9.80
2017-09-14T05:16:13.557Z,9.80
2017-09-14T05:17:16.055Z,9.80
2017-09-14T05:18:19.315Z,9.80
2017-09-14T05:19:21.809Z,9.80
2017-09-14T05:20:25.091Z,9.80
2017-09-14T05:21:28.357Z,9.80
2017-09-14T05:22:31.662Z,9.80
2017-09-14T05:23:34.920Z,9.90
2017-09-14T05:24:37.427Z,9.80
2017-09-14T05:25:40.056Z,9.80
2017-09-14T05:26:42.566Z,9.80
2017-09-14T05:27:45.181Z,9.80
2017-09-14T05:28:47.687Z,9.80
2017-09-14T05:29:50.321Z,9.80
2017-09-14T05:30:53.597Z,9.80
2017-09-14T05:31:58.742Z,9.90
2017-09-14T05:33:02.028Z,10.00
2017-09-14T05:34:05.662Z,10.00
2017-09-14T05:35:08.164Z,10.00
2017-09-14T05:36:10.739Z,10.10
2017-09-14T05:37:13.280Z,10.10
2017-09-14T05:38:15.760Z,10.20
2017-09-14T05:39:18.336Z,10.30
2017-09-14T05:40:20.989Z,10.50
2017-09-14T05:41:23.481Z,10.80
2017-09-14T05:42:26.751Z,11.70
2017-09-14T05:43:29.236Z,11.70
2017-09-14T05:44:32.815Z,12.60
2017-09-14T05:45:35.320Z,12.60
2017-09-14T05:46:37.835Z,13.00
2017-09-14T05:47:40.358Z,13.30
2017-09-14T05:48:42.873Z,13.70
2017-09-14T05:49:45.387Z,13.90
2017-09-14T05:50:48.068Z,14.40
2017-09-14T05:51:50.563Z,14.80
2017-09-14T05:52:53.063Z,15.20
2017-09-14T05:53:56.336Z,15.50
2017-09-14T05:54:59.704Z,15.70
2017-09-14T05:56:02.194Z,15.70
2017-09-14T05:57:05.441Z,15.20
2017-09-14T05:58:08.088Z,15.20
2017-09-14T05:59:10.749Z,15.00
2017-09-14T06:00:13.272Z,14.60
2017-09-14T06:01:16.531Z,14.30
2017-09-14T06:02:19.019Z,14.30
2017-09-14T06:03:21.561Z,14.20
2017-09-14T06:04:24.080Z,14.10
2017-09-14T06:05:26.809Z,13.80
2017-09-14T06:06:29.321Z,13.60
2017-09-14T06:07:31.815Z,13.40
2017-09-14T06:08:34.339Z,13.30
2017-09-14T06:09:37.610Z,13.10
2017-09-14T06:10:40.870Z,12.90
2017-09-14T06:11:43.555Z,12.90
2017-09-14T06:12:46.040Z,12.70
2017-09-14T06:13:49.293Z,12.50
2017-09-14T06:14:51.798Z,12.50
2017-09-14T06:15:54.315Z,12.50
2017-09-14T06:16:56.850Z,12.30
2017-09-14T06:17:59.332Z,12.20
2017-09-14T06:19:01.845Z,12.30
2017-09-14T06:20:05.115Z,12.20
2017-09-14T06:21:08.412Z,12.30
2017-09-14T06:22:11.695Z,12.30
2017-09-14T06:23:14.947Z,12.50
2017-09-14T06:24:17.497Z,12.40
2017-09-14T06:25:19.984Z,12.50
2017-09-14T06:26:22.552Z,12.60
2017-09-14T06:27:25.081Z,12.70
2017-09-14T06:28:27.683Z,12.70
2017-09-14T06:29:30.160Z,12.70
2017-09-14T06:30:32.818Z,12.80
2017-09-14T06:31:35.306Z,12.90
2017-09-14T06:32:38.596Z,13.10
2017-09-14T06:33:41.843Z,13.20
2017-09-14T06:34:44.394Z,13.20
2017-09-14T06:35:46.877Z,13.30
2017-09-14T06:36:49.511Z,13.30
2017-09-14T06:37:52.111Z,13.20
2017-09-14T06:38:54.680Z,13.20
2017-09-14T06:39:57.278Z,13.20
2017-09-14T06:41:00.527Z,13.00
2017-09-14T06:42:03.038Z,13.00
2017-09-14T06:43:05.678Z,12.90
2017-09-14T06:44:08.391Z,12.70
2017-09-14T06:45:10.868Z,12.80
2017-09-14T06:46:13.446Z,12.70
2017-09-14T06:47:15.926Z,12.80
2017-09-14T06:48:18.454Z,12.90
2017-09-14T06:49:20.942Z,13.00
2017-09-14T06:50:23.421Z,13.10
2017-09-14T06:51:25.991Z,13.20
2017-09-14T06:52:29.240Z,13.30
2017-09-14T06:53:31.735Z,13.30
2017-09-14T06:54:34.342Z,13.40
2017-09-14T06:55:37.651Z,13.30
2017-09-14T06:56:40.129Z,13.30
2017-09-14T06:57:42.607Z,13.20
2017-09-14T06:58:45.104Z,13.20
2017-09-14T06:59:47.657Z,13.20
2017-09-14T07:00:50.264Z,13.00
2017-09-14T07:01:52.765Z,13.00
2017-09-14T07:02:55.254Z,12.90
2017-09-14T07:03:57.808Z,13.00
2017-09-14T07:05:00.317Z,13.00
2017-09-14T07:06:03.587Z,12.90
2017-09-14T07:07:06.108Z,12.90
2017-09-14T07:08:08.956Z,12.90
2017-09-14T07:09:11.485Z,13.00
2017-09-14T07:10:14.034Z,12.90
2017-09-14T07:11:16.527Z,13.00
2017-09-14T07:12:19.783Z,13.10
2017-09-14T07:13:22.292Z,13.10
2017-09-14T07:14:24.849Z,13.10
2017-09-14T07:15:28.126Z,13.30
2017-09-14T07:16:31.380Z,13.40
2017-09-14T07:17:33.866Z,13.40
2017-09-14T07:18:36.395Z,13.60
2017-09-14T07:19:38.897Z,13.70
2017-09-14T07:20:42.185Z,13.60
2017-09-14T07:21:44.838Z,13.60
2017-09-14T07:22:47.429Z,13.60
2017-09-14T07:23:50.771Z,13.50
2017-09-14T07:24:53.343Z,13.50
2017-09-14T07:25:55.842Z,13.60
2017-09-14T07:26:59.096Z,13.60
2017-09-14T07:28:01.646Z,13.60
2017-09-14T07:29:04.258Z,13.60
2017-09-14T07:30:06.853Z,13.60
2017-09-14T07:31:09.340Z,13.60
2017-09-14T07:32:11.845Z,13.60
2017-09-14T07:33:14.493Z,13.50
2017-09-14T07:34:16.996Z,13.40
2017-09-14T07:35:20.339Z,13.40
2017-09-14T07:36:22.837Z,13.30
2017-09-14T07:37:25.376Z,13.10
2017-09-14T07:38:27.890Z,13.00
2017-09-14T07:39:30.379Z,12.90
2017-09-14T07:40:32.900Z,12.80
2017-09-14T07:41:36.396Z,12.50
2017-09-14T07:42:39.687Z,12.30
2017-09-14T07:43:43.066Z,12.20
2017-09-14T07:44:46.353Z,12.00
2017-09-14T07:45:49.729Z,12.00
2017-09-14T07:46:52.224Z,12.00
2017-09-14T07:47:54.707Z,12.00
2017-09-14T07:48:57.193Z,12.00
2017-09-14T07:49:59.796Z,12.00
2017-09-14T07:51:03.095Z,11.90
2017-09-14T07:52:06.434Z,11.90
2017-09-14T07:53:08.961Z,11.80
2017-09-14T07:54:11.631Z,11.90
2017-09-14T07:55:14.128Z,11.80
2017-09-14T07:56:16.696Z,11.70
2017-09-14T07:57:19.186Z,11.70
2017-09-14T07:58:21.758Z,11.80
2017-09-14T07:59:24.257Z,11.80
2017-09-14T08:00:26.736Z,11.80
2017-09-14T08:01:29.970Z,11.80
2017-09-14T08:02:32.509Z,11.90
2017-09-14T08:03:35.036Z,11.90
2017-09-14T08:04:37.531Z,11.90
2017-09-14T08:05:40.036Z,11.80
2017-09-14T08:06:43.396Z,11.70
2017-09-14T08:07:45.996Z,11.70
2017-09-14T08:08:49.431Z,11.60
2017-09-14T08:09:52.027Z,11.60
2017-09-14T08:10:54.623Z,11.60
2017-09-14T08:11:57.879Z,11.40
2017-09-14T08:13:00.440Z,11.40
2017-09-14T08:14:02.928Z,11.40
2017-09-14T08:15:06.912Z,11.50
2017-09-14T08:16:09.408Z,11.50
2017-09-14T08:17:12.905Z,11.60
2017-09-14T08:18:15.405Z,11.60
2017-09-14T08:19:18.047Z,11.60
2017-09-14T08:20:20.541Z,11.70
2017-09-14T08:21:23.280Z,11.80
2017-09-14T08:22:25.766Z,11.80
2017-09-14T08:23:29.293Z,11.80
2017-09-14T08:24:31.779Z,11.80
2017-09-14T08:25:35.168Z,12.00
2017-09-14T08:26:38.529Z,12.10
2017-09-14T08:27:41.118Z,12.10
2017-09-14T08:28:44.582Z,12.70
2017-09-14T08:29:47.129Z,12.70
2017-09-14T08:30:49.637Z,13.90
2017-09-14T08:31:52.995Z,18.00
2017-09-14T08:32:55.488Z,18.00
2017-09-14T08:33:58.863Z,21.20
2017-09-14T08:35:01.366Z,21.10
2017-09-14T08:36:03.970Z,22.00
2017-09-14T08:37:06.638Z,23.00
2017-09-14T08:38:09.269Z,23.30
2017-09-14T08:39:11.792Z,22.70
2017-09-14T08:40:14.299Z,21.70
2017-09-14T08:41:16.782Z,20.80
2017-09-14T08:42:19.284Z,20.10
2017-09-14T08:43:21.783Z,19.60
2017-09-14T08:44:24.289Z,19.10
2017-09-14T08:45:26.783Z,18.60
2017-09-14T08:46:30.967Z,17.00
2017-09-14T08:47:34.897Z,17.00
2017-09-14T08:48:38.302Z,16.10
2017-09-14T08:49:41.560Z,15.60
2017-09-14T08:50:44.064Z,15.60
2017-09-14T08:51:46.556Z,15.20
2017-09-14T08:52:49.132Z,14.80
2017-09-14T08:53:51.657Z,14.40
2017-09-14T08:54:54.151Z,14.10
2017-09-14T08:55:56.668Z,13.70
2017-09-14T08:56:59.779Z,13.50
2017-09-14T08:58:02.291Z,13.30
2017-09-14T08:59:04.913Z,13.10
2017-09-14T09:00:07.400Z,12.90
2017-09-14T09:01:09.990Z,12.70
2017-09-14T09:02:13.434Z,12.60
2017-09-14T09:03:16.621Z,12.50
2017-09-14T09:04:19.132Z,12.30
2017-09-14T09:05:21.629Z,12.20
2017-09-14T09:06:24.879Z,12.10
2017-09-14T09:07:27.456Z,12.00
2017-09-14T09:08:29.949Z,12.10
2017-09-14T09:09:34.330Z,12.00
2017-09-14T09:10:37.675Z,12.10
2017-09-14T09:11:40.283Z,12.00
2017-09-14T09:12:42.921Z,12.00
2017-09-14T09:13:45.488Z,11.80
2017-09-14T09:14:48.104Z,11.80
2017-09-14T09:15:51.609Z,11.70
2017-09-14T09:16:54.107Z,11.70
2017-09-14T09:17:56.830Z,11.50
2017-09-14T09:18:59.392Z,11.50
2017-09-14T09:20:02.724Z,11.60
2017-09-14T09:21:05.370Z,11.60
2017-09-14T09:22:07.860Z,11.60
2017-09-14T09:23:10.490Z,11.50
2017-09-14T09:24:14.001Z,11.50
2017-09-14T09:25:16.532Z,11.40
2017-09-14T09:26:19.011Z,11.40
2017-09-14T09:27:22.275Z,11.20
2017-09-14T09:28:24.822Z,11.20
2017-09-14T09:29:29.621Z,11.30
2017-09-14T09:30:32.188Z,11.30
2017-09-14T09:31:34.700Z,11.50
2017-09-14T09:32:38.069Z,11.80
2017-09-14T09:33:40.558Z,11.80
2017-09-14T09:34:43.937Z,12.20
2017-09-14T09:35:47.302Z,12.50
2017-09-14T09:36:49.781Z,12.50
2017-09-14T09:37:52.256Z,12.70
2017-09-14T09:38:55.783Z,13.10
2017-09-14T09:39:58.302Z,13.20
2017-09-14T09:41:02.704Z,13.70
2017-09-14T09:42:05.206Z,13.70
2017-09-14T09:43:07.946Z,13.80
2017-09-14T09:44:10.420Z,13.90
2017-09-14T09:45:15.140Z,14.20
2017-09-14T09:46:18.383Z,14.20
2017-09-14T09:47:20.972Z,14.20
2017-09-14T09:48:24.234Z,14.30
2017-09-14T09:49:26.719Z,14.40
2017-09-14T09:50:29.252Z,14.70
2017-09-14T09:51:31.857Z,14.90
2017-09-14T09:52:34.369Z,15.10
2017-09-14T09:53:36.979Z,14.90
2017-09-14T09:54:39.469Z,14.90
2017-09-14T09:55:42.849Z,15.10
2017-09-14T09:56:46.121Z,14.90
2017-09-14T09:57:48.772Z,14.90
2017-09-14T09:58:51.276Z,14.90
2017-09-14T09:59:54.673Z,15.40
2017-09-14T10:00:57.955Z,15.50
2017-09-14T10:02:00.719Z,15.50
2017-09-14T10:03:04.084Z,15.70
2017-09-14T10:04:07.354Z,15.70
2017-09-14T10:05:09.905Z,15.60
2017-09-14T10:06:12.694Z,15.60
2017-09-14T10:07:15.169Z,15.80
2017-09-14T10:08:17.679Z,15.60
2017-09-14T10:09:20.240Z,15.50
2017-09-14T10:10:22.864Z,15.40
2017-09-14T10:11:25.355Z,15.30
2017-09-14T10:12:28.615Z,15.30
2017-09-14T10:13:31.127Z,15.30
2017-09-14T10:14:33.900Z,15.20
2017-09-14T10:15:36.408Z,15.00
2017-09-14T10:16:38.897Z,14.90
2017-09-14T10:17:42.172Z,14.90
2017-09-14T10:18:44.836Z,14.80
2017-09-14T10:19:47.314Z,14.90
2017-09-14T10:20:49.995Z,14.70
2017-09-14T10:21:53.304Z,14.50
2017-09-14T10:22:55.929Z,14.50
2017-09-14T10:23:58.481Z,14.50
2017-09-14T10:25:00.970Z,14.50
2017-09-14T10:26:03.475Z,14.60
2017-09-14T10:27:05.974Z,14.50
2017-09-14T10:28:08.502Z,14.60
2017-09-14T10:29:11.143Z,14.60
2017-09-14T10:30:14.625Z,14.60
2017-09-14T10:31:17.206Z,14.60
2017-09-14T10:32:20.465Z,14.60
2017-09-14T10:33:23.033Z,14.60
2017-09-14T10:34:25.577Z,14.50
2017-09-14T10:35:28.250Z,14.60
2017-09-14T10:36:30.877Z,14.70
2017-09-14T10:37:33.408Z,14.60
2017-09-14T10:38:35.897Z,14.60
2017-09-14T10:39:39.134Z,14.50
2017-09-14T10:40:41.632Z,14.50
2017-09-14T10:41:44.904Z,14.70
2017-09-14T10:42:47.414Z,14.70
2017-09-14T10:43:49.906Z,14.70
2017-09-14T10:44:52.413Z,14.90
2017-09-14T10:45:55.671Z,15.10
2017-09-14T10:46:58.167Z,15.10
2017-09-14T10:48:01.417Z,15.20
2017-09-14T10:49:03.891Z,15.20
2017-09-14T10:50:06.467Z,15.20
2017-09-14T10:51:09.751Z,15.30
2017-09-14T10:52:13.626Z,15.30
2017-09-14T10:53:16.118Z,15.30
2017-09-14T10:54:19.361Z,15.20
2017-09-14T10:55:21.859Z,15.20
2017-09-14T10:56:25.233Z,15.20
2017-09-14T10:57:27.789Z,15.20
2017-09-14T10:58:30.303Z,15.30
2017-09-14T10:59:33.568Z,15.20
2017-09-14T11:00:37.008Z,15.30
2017-09-14T11:01:39.605Z,15.30
2017-09-14T11:02:42.758Z,15.20
2017-09-14T11:03:45.266Z,15.10
2017-09-14T11:04:47.838Z,15.30
2017-09-14T11:05:51.208Z,15.30
2017-09-14T11:06:53.754Z,15.30
2017-09-14T11:07:56.342Z,15.40
2017-09-14T11:08:58.911Z,15.60
2017-09-14T11:10:01.408Z,15.70
2017-09-14T11:11:03.942Z,15.80
2017-09-14T11:12:06.433Z,15.90
2017-09-14T11:13:09.692Z,16.30
2017-09-14T11:14:12.651Z,16.30
2017-09-14T11:15:15.197Z,16.40
2017-09-14T11:16:17.680Z,16.50
2017-09-14T11:17:20.268Z,16.80
2017-09-14T11:18:22.757Z,16.80
2017-09-14T11:19:26.035Z,17.30
2017-09-14T11:20:29.405Z,17.40
2017-09-14T11:21:31.957Z,17.40
2017-09-14T11:22:35.161Z,17.50
2017-09-14T11:23:38.423Z,17.40
2017-09-14T11:24:41.015Z,17.40
2017-09-14T11:25:44.259Z,17.30
2017-09-14T11:26:46.780Z,17.20
2017-09-14T11:27:50.112Z,17.00
2017-09-14T11:28:52.601Z,17.00
2017-09-14T11:29:55.128Z,17.00
2017-09-14T11:30:57.643Z,17.00
2017-09-14T11:32:00.896Z,17.40
2017-09-14T11:33:03.409Z,17.40
2017-09-14T11:34:05.937Z,17.60
2017-09-14T11:35:08.419Z,17.70
2017-09-14T11:36:11.802Z,17.90
2017-09-14T11:37:15.048Z,17.90
2017-09-14T11:38:17.887Z,17.90
2017-09-14T11:39:20.387Z,18.00
2017-09-14T11:40:23.023Z,17.90
2017-09-14T11:41:25.528Z,17.80
2017-09-14T11:42:28.085Z,17.70
2017-09-14T11:43:30.589Z,17.60
2017-09-14T11:44:33.175Z,17.50
2017-09-14T11:45:36.422Z,17.10
2017-09-14T11:46:38.993Z,17.10
2017-09-14T11:47:41.480Z,17.00
2017-09-14T11:48:44.773Z,16.70
2017-09-14T11:49:48.016Z,16.80
2017-09-14T11:50:50.590Z,16.80
2017-09-14T11:51:53.072Z,16.80
2017-09-14T11:52:56.345Z,16.70
2017-09-14T11:53:58.840Z,16.70
2017-09-14T11:55:02.179Z,16.90
2017-09-14T11:56:04.673Z,16.90
2017-09-14T11:57:07.199Z,16.90
2017-09-14T11:58:09.809Z,16.90
2017-09-14T11:59:13.220Z,16.90
2017-09-14T12:00:15.725Z,16.90
2017-09-14T12:01:18.304Z,16.70
2017-09-14T12:02:20.781Z,16.60
2017-09-14T12:03:23.339Z,16.60
2017-09-14T12:04:25.836Z,16.60
2017-09-14T12:05:29.201Z,17.10
2017-09-14T12:06:32.531Z,17.40
2017-09-14T12:07:35.022Z,17.40
2017-09-14T12:08:37.501Z,17.40
2017-09-14T12:09:41.683Z,17.80
2017-09-14T12:10:44.205Z,17.80
2017-09-14T12:11:47.559Z,17.80
2017-09-14T12:12:50.049Z,17.80
2017-09-14T12:13:53.405Z,18.00
2017-09-14T12:14:55.932Z,18.00
2017-09-14T12:15:58.447Z,18.10
2017-09-14T12:17:01.028Z,18.10
2017-09-14T12:18:04.292Z,18.40
2017-09-14T12:19:06.783Z,18.40
2017-09-14T12:20:10.119Z,18.70
2017-09-14T12:21:12.733Z,18.70
2017-09-14T12:22:16.146Z,18.40
2017-09-14T12:23:18.715Z,18.40
2017-09-14T12:24:22.021Z,18.40
2017-09-14T12:25:24.605Z,18.40
2017-09-14T12:26:28.288Z,18.10
2017-09-14T12:27:30.788Z,17.90
2017-09-14T12:28:34.077Z,18.00
2017-09-14T12:29:37.341Z,18.20
2017-09-14T12:30:39.998Z,18.20
2017-09-14T12:31:42.475Z,18.20
2017-09-14T12:32:45.057Z,18.10
2017-09-14T12:33:47.572Z,18.20
2017-09-14T12:34:50.145Z,18.30
2017-09-14T12:35:52.642Z,18.10
2017-09-14T12:36:55.204Z,18.30
2017-09-14T12:37:57.728Z,18.30
2017-09-14T12:39:00.329Z,18.50
2017-09-14T12:40:02.815Z,18.80
2017-09-14T12:41:05.328Z,18.90
2017-09-14T12:42:07.870Z,19.00
2017-09-14T12:43:11.210Z,19.20
2017-09-14T12:44:13.776Z,19.20
2017-09-14T12:45:17.912Z,19.20
2017-09-14T12:46:21.252Z,19.60
2017-09-14T12:47:24.017Z,19.50
2017-09-14T12:48:26.542Z,19.40
2017-09-14T12:49:29.898Z,19.10
2017-09-14T12:50:32.393Z,19.00
2017-09-14T12:51:35.798Z,19.00
2017-09-14T12:52:38.347Z,18.90
2017-09-14T12:53:41.703Z,18.90
2017-09-14T12:54:44.243Z,18.90
2017-09-14T12:55:46.856Z,18.80
2017-09-14T12:56:49.977Z,18.60
2017-09-14T12:57:52.577Z,18.60
2017-09-14T12:58:55.212Z,18.30
2017-09-14T12:59:57.693Z,17.90
2017-09-14T13:01:00.195Z,17.60
2017-09-14T13:02:02.748Z,17.40
2017-09-14T13:03:05.235Z,17.10
2017-09-14T13:04:08.684Z,17.10
2017-09-14T13:05:11.193Z,17.10
2017-09-14T13:06:14.577Z,17.00
2017-09-14T13:07:17.077Z,17.00
2017-09-14T13:08:19.709Z,17.10
2017-09-14T13:09:22.188Z,17.20
2017-09-14T13:10:25.542Z,17.20
2017-09-14T13:11:28.033Z,17.20
2017-09-14T13:12:31.393Z,17.50
2017-09-14T13:13:34.008Z,17.50
2017-09-14T13:14:36.722Z,17.60
2017-09-14T13:15:39.309Z,17.70
2017-09-14T13:16:44.789Z,17.80
2017-09-14T13:17:47.333Z,17.80
2017-09-14T13:18:50.761Z,18.00
2017-09-14T13:19:53.856Z,18.00
2017-09-14T13:20:57.817Z,18.10
2017-09-14T13:22:00.314Z,18.20
2017-09-14T13:23:02.903Z,18.10
2017-09-14T13:24:05.424Z,18.10
2017-09-14T13:25:08.032Z,17.90
2017-09-14T13:26:10.642Z,17.90
2017-09-14T13:27:13.152Z,17.60
2017-09-14T13:28:15.742Z,17.40
2017-09-14T13:29:18.381Z,17.30
2017-09-14T13:30:21.356Z,17.20
2017-09-14T13:31:23.843Z,17.20
2017-09-14T13:32:26.410Z,17.10
2017-09-14T13:33:28.891Z,17.10
2017-09-14T13:34:32.282Z,17.10